createdAt,value
2022-11-26T00:00:48.346Z,5.23
2022-11-26T00:03:15.466Z,5.22
2022-11-26T00:05:47.122Z,5.29
2022-11-26T00:08:25.478Z,5.28
2022-11-26T00:10:54.070Z,5.19
2022-11-26T00:13:23.957Z,5.15
2022-11-26T00:15:51.415Z,5.09
2022-11-26T00:18:19.213Z,5.14
2022-11-26T00:20:46.855Z,5.06
2022-11-26T00:23:22.497Z,5.03
2022-11-26T00:25:53.574Z,4.97
2022-11-26T00:28:36.015Z,4.86
2022-11-26T00:31:06.111Z,4.80
2022-11-26T00:33:33.461Z,4.77
2022-11-26T00:36:12.301Z,4.75
2022-11-26T00:38:39.009Z,4.73
2022-11-26T00:41:08.686Z,4.71
2022-11-26T00:43:35.391Z,4.55
2022-11-26T00:46:02.156Z,4.56
2022-11-26T00:48:29.014Z,4.68
2022-11-26T00:50:55.783Z,4.58
2022-11-26T00:53:24.240Z,4.53
2022-11-26T00:55:51.326Z,4.60
2022-11-26T00:58:24.846Z,4.56
2022-11-26T01:00:52.828Z,4.49
2022-11-26T01:03:19.840Z,4.47
2022-11-26T01:05:50.458Z,4.36
2022-11-26T01:08:30.562Z,4.36
2022-11-26T01:10:58.566Z,4.41
2022-11-26T01:13:25.867Z,4.47
2022-11-26T01:15:52.659Z,4.47
2022-11-26T01:18:21.509Z,4.57
2022-11-26T01:20:48.792Z,4.60
2022-11-26T01:23:17.002Z,4.68
2022-11-26T01:25:44.281Z,4.60
2022-11-26T01:28:18.381Z,4.63
2022-11-26T01:30:46.327Z,4.47
2022-11-26T01:33:13.173Z,4.57
2022-11-26T01:35:39.895Z,4.59
2022-11-26T01:38:06.785Z,4.68
2022-11-26T01:40:50.104Z,4.67
2022-11-26T01:43:33.767Z,4.63
2022-11-26T01:46:00.681Z,4.59
2022-11-26T01:48:29.236Z,4.59
2022-11-26T01:51:00.592Z,4.41
2022-11-26T01:53:31.797Z,4.27
2022-11-26T01:56:01.163Z,4.39
2022-11-26T01:58:34.454Z,4.47
2022-11-26T02:01:05.654Z,4.48
2022-11-26T02:03:35.805Z,4.48
2022-11-26T02:06:06.165Z,4.43
2022-11-26T02:08:34.786Z,4.49
2022-11-26T02:11:16.351Z,4.47
2022-11-26T02:13:43.910Z,4.49
2022-11-26T02:16:46.159Z,4.43
2022-11-26T02:19:46.074Z,4.47
2022-11-26T02:23:11.621Z,4.43
2022-11-26T02:25:58.755Z,4.23
2022-11-26T02:29:04.026Z,4.30
2022-11-26T02:31:52.088Z,4.38
2022-11-26T02:34:37.512Z,4.40
2022-11-26T02:37:09.894Z,4.40
2022-11-26T02:39:36.720Z,4.57
2022-11-26T02:42:04.578Z,4.62
2022-11-26T02:44:42.277Z,4.56
2022-11-26T02:47:12.068Z,4.48
2022-11-26T02:49:39.575Z,4.56
2022-11-26T02:52:07.917Z,4.63
2022-11-26T02:54:36.843Z,4.65
2022-11-26T02:57:06.444Z,4.60
2022-11-26T02:59:33.569Z,4.72
2022-11-26T03:02:27.993Z,4.69
2022-11-26T03:04:57.538Z,4.68
2022-11-26T03:07:24.629Z,4.70
2022-11-26T03:09:56.834Z,4.73
2022-11-26T03:12:23.595Z,4.71
2022-11-26T03:14:50.303Z,4.62
2022-11-26T03:17:17.875Z,4.50
2022-11-26T03:19:45.876Z,4.60
2022-11-26T03:22:14.221Z,4.63
2022-11-26T03:24:41.337Z,4.66
2022-11-26T03:27:08.628Z,4.64
2022-11-26T03:29:35.825Z,4.67
2022-11-26T03:32:02.721Z,4.73
2022-11-26T03:34:29.832Z,4.74
2022-11-26T03:36:57.239Z,4.73
2022-11-26T03:39:24.096Z,4.77
2022-11-26T03:41:50.980Z,4.79
2022-11-26T03:44:17.675Z,4.63
2022-11-26T03:46:44.441Z,4.81
2022-11-26T03:49:11.331Z,4.96
2022-11-26T03:51:38.167Z,4.83
2022-11-26T03:54:05.175Z,4.93
2022-11-26T03:56:31.925Z,5.05
2022-11-26T03:58:58.680Z,5.02
2022-11-26T04:01:25.962Z,4.99
2022-11-26T04:03:52.897Z,4.90
2022-11-26T04:06:19.661Z,4.95
2022-11-26T04:08:46.466Z,4.98
2022-11-26T04:11:13.436Z,4.98
2022-11-26T04:13:40.194Z,5.01
2022-11-26T04:16:07.306Z,4.90
2022-11-26T04:18:34.072Z,5.08
2022-11-26T04:21:00.988Z,5.01
2022-11-26T04:23:27.990Z,4.96
2022-11-26T04:25:54.923Z,4.96
2022-11-26T04:28:21.947Z,5.08
2022-11-26T04:30:48.569Z,4.99
2022-11-26T04:33:15.313Z,5.02
2022-11-26T04:35:42.789Z,4.91
2022-11-26T04:38:09.743Z,4.98
2022-11-26T04:40:36.914Z,5.05
2022-11-26T04:43:03.801Z,5.04
2022-11-26T04:45:30.719Z,4.92
2022-11-26T04:47:57.546Z,4.88
2022-11-26T04:50:24.822Z,4.81
2022-11-26T04:52:51.564Z,4.78
2022-11-26T04:55:18.443Z,4.66
2022-11-26T04:57:48.966Z,4.65
2022-11-26T05:00:17.464Z,4.63
2022-11-26T05:02:44.383Z,4.62
2022-11-26T05:05:12.183Z,4.59
2022-11-26T05:07:39.285Z,4.59
2022-11-26T05:10:07.549Z,4.57
2022-11-26T05:12:34.517Z,4.44
2022-11-26T05:15:01.309Z,4.46
2022-11-26T05:17:28.358Z,4.36
2022-11-26T05:19:55.172Z,4.33
2022-11-26T05:22:21.932Z,4.23
2022-11-26T05:24:48.702Z,4.19
2022-11-26T05:27:15.720Z,4.08
2022-11-26T05:29:42.833Z,3.99
2022-11-26T05:32:09.717Z,3.94
2022-11-26T05:34:36.982Z,4.06
2022-11-26T05:37:04.473Z,3.92
2022-11-26T05:39:31.158Z,4.00
2022-11-26T05:41:57.854Z,4.06
2022-11-26T05:44:24.801Z,3.91
2022-11-26T05:46:51.848Z,3.98
2022-11-26T05:49:18.562Z,3.92
2022-11-26T05:51:45.229Z,3.93
2022-11-26T05:54:14.022Z,3.87
2022-11-26T05:56:41.618Z,3.90
2022-11-26T05:59:08.963Z,3.90
2022-11-26T06:01:35.826Z,3.83
2022-11-26T06:04:02.708Z,3.85
2022-11-26T06:06:29.624Z,3.78
2022-11-26T06:08:56.841Z,3.83
2022-11-26T06:11:23.622Z,3.78
2022-11-26T06:13:50.401Z,3.77
2022-11-26T06:16:17.443Z,3.72
2022-11-26T06:18:44.271Z,3.69
2022-11-26T06:21:11.714Z,3.64
2022-11-26T06:23:39.215Z,3.55
2022-11-26T06:26:11.811Z,3.57
2022-11-26T06:28:39.605Z,3.55
2022-11-26T06:31:06.580Z,3.51
2022-11-26T06:33:33.506Z,3.38
2022-11-26T06:36:01.636Z,3.43
2022-11-26T06:38:28.691Z,3.38
2022-11-26T06:41:03.691Z,3.36
2022-11-26T06:43:30.800Z,3.26
2022-11-26T06:46:15.974Z,3.29
2022-11-26T06:48:43.128Z,3.27
2022-11-26T06:51:12.499Z,3.28
2022-11-26T06:53:39.450Z,3.16
2022-11-26T06:56:14.803Z,3.16
2022-11-26T06:58:44.949Z,3.17
2022-11-26T07:01:14.884Z,3.21
2022-11-26T07:03:41.800Z,3.28
2022-11-26T07:06:24.693Z,3.28
2022-11-26T07:08:53.145Z,3.20
2022-11-26T07:11:20.782Z,3.36
2022-11-26T07:13:48.020Z,3.40
2022-11-26T07:16:15.140Z,3.46
2022-11-26T07:18:42.220Z,3.51
2022-11-26T07:21:11.894Z,3.48
2022-11-26T07:23:39.191Z,3.47
2022-11-26T07:26:07.767Z,3.50
2022-11-26T07:28:35.405Z,3.43
2022-11-26T07:31:10.256Z,3.38
2022-11-26T07:33:40.492Z,3.36
2022-11-26T07:36:09.612Z,3.40
2022-11-26T07:38:36.389Z,3.40
2022-11-26T07:41:05.567Z,3.44
2022-11-26T07:43:35.087Z,3.54
2022-11-26T07:46:03.236Z,3.38
2022-11-26T07:48:30.835Z,3.31
2022-11-26T07:50:58.730Z,3.35
2022-11-26T07:53:31.125Z,3.27
2022-11-26T07:55:58.172Z,3.08
2022-11-26T07:58:24.983Z,3.24
2022-11-26T08:00:54.590Z,3.29
2022-11-26T08:03:21.779Z,3.35
2022-11-26T08:05:48.568Z,3.44
2022-11-26T08:08:15.369Z,3.45
2022-11-26T08:10:42.526Z,3.42
2022-11-26T08:13:09.225Z,3.50
2022-11-26T08:15:37.534Z,3.52
2022-11-26T08:18:04.433Z,3.51
2022-11-26T08:20:31.151Z,3.60
2022-11-26T08:22:57.820Z,3.58
2022-11-26T08:25:24.612Z,3.63
2022-11-26T08:27:51.254Z,3.62
2022-11-26T08:30:18.178Z,3.63
2022-11-26T08:32:44.985Z,3.72
2022-11-26T08:35:12.795Z,3.71
2022-11-26T08:37:42.339Z,3.82
2022-11-26T08:40:13.852Z,3.72
2022-11-26T08:42:40.926Z,3.81
2022-11-26T08:45:08.334Z,3.90
2022-11-26T08:47:35.490Z,3.96
2022-11-26T08:50:02.231Z,4.07
2022-11-26T08:52:29.000Z,4.10
2022-11-26T08:54:56.131Z,4.26
2022-11-26T08:57:23.122Z,4.29
2022-11-26T08:59:52.084Z,4.33
2022-11-26T09:02:19.200Z,4.36
2022-11-26T09:04:46.557Z,4.46
2022-11-26T09:07:13.643Z,4.43
2022-11-26T09:09:40.637Z,4.59
2022-11-26T09:12:07.796Z,4.71
2022-11-26T09:14:39.695Z,4.77
2022-11-26T09:17:07.601Z,4.86
2022-11-26T09:19:34.718Z,4.97
2022-11-26T09:22:01.487Z,5.03
2022-11-26T09:24:28.466Z,5.11
2022-11-26T09:26:55.256Z,5.23
2022-11-26T09:29:23.304Z,5.30
2022-11-26T09:34:38.336Z,5.41
2022-11-26T09:37:05.727Z,5.55
2022-11-26T09:39:32.550Z,5.59
2022-11-26T09:42:34.360Z,5.70
2022-11-26T09:45:39.965Z,5.76
2022-11-26T09:48:13.807Z,5.85
2022-11-26T09:50:41.884Z,5.84
2022-11-26T09:53:17.076Z,5.86
2022-11-26T09:55:45.815Z,5.95
2022-11-26T09:58:58.115Z,6.05
2022-11-26T10:01:25.265Z,6.10
2022-11-26T10:03:52.813Z,6.16
2022-11-26T10:06:34.822Z,6.40
2022-11-26T10:09:56.861Z,6.47
2022-11-26T10:13:11.249Z,6.45
2022-11-26T10:16:25.239Z,6.53
2022-11-26T10:19:34.586Z,6.60
2022-11-26T10:22:30.977Z,6.58
2022-11-26T10:25:20.324Z,6.64
2022-11-26T10:28:25.959Z,6.58
2022-11-26T10:31:20.807Z,6.66
2022-11-26T10:34:15.609Z,6.78
2022-11-26T10:37:02.983Z,6.83
2022-11-26T10:40:03.252Z,6.94
2022-11-26T10:43:03.293Z,7.08
2022-11-26T10:45:58.242Z,7.14
2022-11-26T10:48:48.761Z,7.16
2022-11-26T10:51:41.352Z,7.30
2022-11-26T10:54:39.080Z,7.26
2022-11-26T10:57:30.876Z,7.23
2022-11-26T11:00:37.519Z,7.29
2022-11-26T11:03:06.911Z,7.26
2022-11-26T11:05:35.340Z,7.28
2022-11-26T11:08:02.375Z,7.23
2022-11-26T11:10:29.865Z,7.34
2022-11-26T11:13:11.518Z,7.41
2022-11-26T11:15:40.625Z,7.43
2022-11-26T11:18:19.690Z,7.46
2022-11-26T11:20:55.958Z,7.45
2022-11-26T11:23:40.366Z,7.41
2022-11-26T11:26:23.986Z,7.41
2022-11-26T11:28:52.669Z,7.48
2022-11-26T11:31:25.509Z,7.52
2022-11-26T11:33:53.176Z,7.39
2022-11-26T11:36:29.640Z,7.45
2022-11-26T11:38:59.173Z,7.36
2022-11-26T11:41:29.935Z,7.39
2022-11-26T11:44:13.615Z,7.55
2022-11-26T11:46:48.676Z,7.52
2022-11-26T11:49:45.093Z,7.46
2022-11-26T11:52:49.598Z,7.47
2022-11-26T11:55:37.074Z,7.49
2022-11-26T11:58:47.639Z,7.58
2022-11-26T12:01:39.163Z,7.58
2022-11-26T12:04:36.960Z,7.59
2022-11-26T12:07:24.235Z,7.66
2022-11-26T12:10:38.114Z,7.75
2022-11-26T12:13:06.896Z,7.68
2022-11-26T12:15:55.714Z,7.71
2022-11-26T12:18:27.379Z,7.76
2022-11-26T12:20:56.679Z,7.75
2022-11-26T12:23:45.402Z,7.83
2022-11-26T12:26:19.891Z,7.82
2022-11-26T12:28:58.436Z,7.80
2022-11-26T12:31:44.768Z,7.89
2022-11-26T12:34:30.605Z,7.92
2022-11-26T12:37:06.172Z,7.80
2022-11-26T12:39:47.985Z,7.88
2022-11-26T12:42:32.306Z,7.97
2022-11-26T12:45:16.269Z,8.02
2022-11-26T12:48:00.728Z,7.92
2022-11-26T12:50:58.464Z,8.04
2022-11-26T12:53:48.080Z,8.01
2022-11-26T12:56:37.526Z,7.94
2022-11-26T12:59:18.919Z,7.97
2022-11-26T13:01:46.016Z,7.98
2022-11-26T13:04:36.570Z,8.01
2022-11-26T13:07:14.374Z,8.05
2022-11-26T13:09:47.539Z,8.01
2022-11-26T13:12:22.897Z,8.02
2022-11-26T13:15:14.877Z,8.01
2022-11-26T13:17:45.272Z,8.07
2022-11-26T13:20:47.212Z,8.04
2022-11-26T13:24:02.121Z,7.93
2022-11-26T13:27:06.036Z,8.01
2022-11-26T13:29:57.343Z,8.00
2022-11-26T13:32:57.252Z,8.05
2022-11-26T13:36:05.614Z,8.04
2022-11-26T13:39:10.049Z,8.04
2022-11-26T13:42:09.635Z,7.98
2022-11-26T13:44:39.493Z,8.09
2022-11-26T13:47:11.107Z,8.01
2022-11-26T13:49:43.390Z,7.97
2022-11-26T13:52:40.820Z,7.95
2022-11-26T13:55:17.869Z,8.02
2022-11-26T13:57:47.963Z,8.04
2022-11-26T14:00:26.031Z,7.96
2022-11-26T14:02:52.931Z,7.92
2022-11-26T14:05:19.793Z,8.00
2022-11-26T14:07:47.143Z,8.08
2022-11-26T14:10:36.190Z,8.03
2022-11-26T14:13:13.536Z,7.98
2022-11-26T14:16:07.392Z,7.87
2022-11-26T14:19:09.750Z,7.87
2022-11-26T14:21:59.507Z,7.89
2022-11-26T14:25:04.764Z,7.89
2022-11-26T14:27:35.479Z,7.99
2022-11-26T14:30:15.657Z,7.95
2022-11-26T14:32:55.221Z,7.99
2022-11-26T14:35:30.687Z,7.93
2022-11-26T14:38:01.928Z,7.97
2022-11-26T14:40:31.768Z,7.96
2022-11-26T14:43:09.341Z,7.83
2022-11-26T14:45:36.186Z,7.87
2022-11-26T14:48:04.278Z,7.84
2022-11-26T14:50:32.842Z,7.73
2022-11-26T14:53:03.945Z,7.71
2022-11-26T14:55:32.104Z,7.71
2022-11-26T14:58:09.964Z,7.81
2022-11-26T15:00:37.003Z,7.91
2022-11-26T15:03:04.279Z,7.94
2022-11-26T15:05:35.491Z,8.00
2022-11-26T15:08:13.306Z,7.88
2022-11-26T15:10:48.144Z,7.83
2022-11-26T15:13:20.272Z,7.87
2022-11-26T15:15:53.691Z,7.94
2022-11-26T15:18:22.667Z,7.97
2022-11-26T15:20:53.355Z,7.89
2022-11-26T15:23:31.232Z,7.90
2022-11-26T15:26:00.490Z,7.90
2022-11-26T15:28:28.217Z,7.86
2022-11-26T15:31:02.613Z,7.86
2022-11-26T15:33:33.204Z,7.80
2022-11-26T15:36:00.470Z,7.74
2022-11-26T15:38:29.902Z,7.72
2022-11-26T15:41:07.320Z,7.66
2022-11-26T15:43:37.204Z,7.69
2022-11-26T15:46:25.019Z,7.66
2022-11-26T15:48:59.226Z,7.64
2022-11-26T15:51:48.943Z,7.65
2022-11-26T15:54:26.434Z,7.60
2022-11-26T15:57:06.489Z,7.52
2022-11-26T15:59:47.299Z,7.47
2022-11-26T16:02:20.786Z,7.48
2022-11-26T16:04:54.380Z,7.49
2022-11-26T16:07:45.041Z,7.53
2022-11-26T16:10:23.616Z,7.47
2022-11-26T16:13:32.553Z,7.47
2022-11-26T16:16:24.760Z,7.49
2022-11-26T16:19:00.301Z,7.61
2022-11-26T16:21:29.593Z,7.55
2022-11-26T16:23:58.259Z,7.49
2022-11-26T16:26:25.256Z,7.43
2022-11-26T16:28:52.064Z,7.41
2022-11-26T16:31:18.917Z,7.38
2022-11-26T16:33:45.962Z,7.31
2022-11-26T16:36:24.052Z,7.36
2022-11-26T16:38:51.537Z,7.39
2022-11-26T16:41:20.374Z,7.35
2022-11-26T16:43:48.085Z,7.33
2022-11-26T16:46:20.523Z,7.33
2022-11-26T16:48:48.335Z,7.28
2022-11-26T16:51:15.177Z,7.30
2022-11-26T16:54:02.736Z,7.17
2022-11-26T16:56:53.263Z,7.23
2022-11-26T16:59:44.868Z,7.15
2022-11-26T17:02:33.690Z,7.03
2022-11-26T17:05:21.383Z,6.93
2022-11-26T17:08:10.614Z,6.94
2022-11-26T17:10:37.892Z,6.89
2022-11-26T17:13:04.801Z,6.88
2022-11-26T17:15:31.694Z,6.87
2022-11-26T17:18:08.270Z,6.82
2022-11-26T17:20:35.039Z,6.78
2022-11-26T17:23:01.817Z,6.74
2022-11-26T17:25:28.833Z,6.68
2022-11-26T17:27:55.943Z,6.76
2022-11-26T17:30:24.617Z,6.74
2022-11-26T17:32:51.712Z,6.63
2022-11-26T17:35:18.979Z,6.48
2022-11-26T17:37:45.973Z,6.42
2022-11-26T17:40:17.633Z,6.33
2022-11-26T17:42:44.414Z,6.36
2022-11-26T17:45:12.160Z,6.40
2022-11-26T17:47:39.344Z,6.20
2022-11-26T17:50:08.486Z,6.21
2022-11-26T17:52:35.262Z,6.27
2022-11-26T17:55:01.970Z,6.13
2022-11-26T17:57:28.741Z,6.16
2022-11-26T17:59:56.169Z,6.09
2022-11-26T18:02:23.025Z,6.15
2022-11-26T18:04:49.735Z,6.10
2022-11-26T18:07:18.585Z,6.14
2022-11-26T18:09:46.125Z,6.17
2022-11-26T18:12:25.171Z,6.16
2022-11-26T18:14:53.928Z,6.18
2022-11-26T18:17:20.662Z,6.14
2022-11-26T18:19:47.628Z,6.18
2022-11-26T18:22:20.671Z,6.22
2022-11-26T18:24:56.790Z,6.26
2022-11-26T18:27:26.888Z,6.27
2022-11-26T18:29:53.679Z,6.17
2022-11-26T18:32:20.773Z,6.20
2022-11-26T18:34:51.697Z,6.15
2022-11-26T18:37:18.819Z,6.14
2022-11-26T18:39:45.618Z,6.08
2022-11-26T18:45:00.212Z,5.97
2022-11-26T18:47:27.213Z,6.05
2022-11-26T18:49:54.083Z,5.98
2022-11-26T18:52:21.097Z,5.88
2022-11-26T18:54:47.983Z,5.87
2022-11-26T18:57:14.836Z,5.89
2022-11-26T18:59:42.017Z,5.78
2022-11-26T19:02:10.773Z,5.74
2022-11-26T19:04:38.561Z,5.68
2022-11-26T19:07:05.304Z,5.67
2022-11-26T19:09:32.261Z,5.65
2022-11-26T19:11:59.359Z,5.63
2022-11-26T19:14:26.065Z,5.67
2022-11-26T19:16:53.217Z,5.62
2022-11-26T19:19:19.998Z,5.56
2022-11-26T19:21:46.960Z,5.51
2022-11-26T19:24:14.449Z,5.49
2022-11-26T19:26:42.388Z,5.51
2022-11-26T19:29:10.804Z,5.40
2022-11-26T19:31:39.922Z,5.34
2022-11-26T19:34:11.789Z,5.39
2022-11-26T19:36:38.674Z,5.42
2022-11-26T19:39:06.533Z,5.38
2022-11-26T19:41:33.990Z,5.25
2022-11-26T19:44:01.501Z,5.39
2022-11-26T19:46:28.425Z,5.31
2022-11-26T19:48:55.987Z,5.36
2022-11-26T19:51:24.688Z,5.24
2022-11-26T19:53:53.000Z,5.21
2022-11-26T19:56:30.836Z,5.21
2022-11-26T19:58:58.811Z,5.28
2022-11-26T20:01:27.569Z,5.22
2022-11-26T20:03:54.626Z,5.14
2022-11-26T20:06:26.490Z,5.20
2022-11-26T20:08:53.662Z,5.17
2022-11-26T20:11:20.473Z,5.20
2022-11-26T20:13:48.416Z,5.10
2022-11-26T20:16:27.766Z,5.08
2022-11-26T20:18:55.438Z,5.02
2022-11-26T20:21:25.800Z,5.02
2022-11-26T20:23:53.735Z,4.92
2022-11-26T20:26:26.054Z,4.95
2022-11-26T20:28:53.269Z,4.95
2022-11-26T20:31:23.936Z,4.87
2022-11-26T20:33:53.124Z,4.89
2022-11-26T20:36:21.197Z,4.78
2022-11-26T20:38:51.423Z,4.77
2022-11-26T20:41:18.318Z,4.56
2022-11-26T20:43:45.716Z,4.53
2022-11-26T20:46:13.819Z,4.45
2022-11-26T20:48:43.155Z,4.41
2022-11-26T20:51:12.968Z,4.36
2022-11-26T20:53:41.396Z,4.45
2022-11-26T20:56:08.691Z,4.46
2022-11-26T20:58:36.151Z,4.36
2022-11-26T21:01:03.247Z,4.26
2022-11-26T21:03:30.384Z,4.19
2022-11-26T21:06:02.052Z,4.18
2022-11-26T21:08:28.766Z,4.18
2022-11-26T21:10:55.528Z,4.14
2022-11-26T21:13:22.969Z,4.23
2022-11-26T21:15:49.751Z,4.17
2022-11-26T21:18:17.035Z,4.07
2022-11-26T21:20:44.666Z,4.00
2022-11-26T21:23:12.804Z,4.12
2022-11-26T21:25:41.515Z,4.05
2022-11-26T21:28:09.219Z,3.82
2022-11-26T21:30:36.686Z,3.76
2022-11-26T21:33:08.998Z,3.72
2022-11-26T21:35:36.702Z,3.71
2022-11-26T21:38:04.639Z,3.66
2022-11-26T21:40:32.183Z,3.68
2022-11-26T21:42:58.974Z,3.57
2022-11-26T21:45:27.942Z,3.49
2022-11-26T21:47:54.878Z,3.52
2022-11-26T21:50:21.717Z,3.44
2022-11-26T21:52:48.728Z,3.50
2022-11-26T21:55:15.815Z,3.46
2022-11-26T21:57:42.531Z,3.47
2022-11-26T22:00:10.001Z,3.53
2022-11-26T22:02:36.911Z,3.50
2022-11-26T22:05:03.997Z,3.50
2022-11-26T22:07:31.762Z,3.43
2022-11-26T22:09:58.708Z,3.42
2022-11-26T22:12:25.652Z,3.47
2022-11-26T22:14:52.362Z,3.46
2022-11-26T22:17:19.421Z,3.39
2022-11-26T22:19:46.882Z,3.43
2022-11-26T22:22:13.689Z,3.47
2022-11-26T22:24:40.498Z,3.44
2022-11-26T22:27:07.229Z,3.30
2022-11-26T22:29:33.906Z,3.48
2022-11-26T22:32:01.108Z,3.53
2022-11-26T22:34:29.392Z,3.57
2022-11-26T22:36:56.809Z,3.61
2022-11-26T22:39:23.652Z,3.72
2022-11-26T22:41:50.645Z,3.61
2022-11-26T22:44:17.972Z,3.69
2022-11-26T22:46:44.972Z,3.71
2022-11-26T22:49:16.458Z,3.78
2022-11-26T22:51:43.249Z,3.79
2022-11-26T22:54:12.953Z,3.73
2022-11-26T22:56:40.105Z,3.86
2022-11-26T22:59:08.965Z,3.85
2022-11-26T23:01:36.835Z,3.90
2022-11-26T23:04:06.124Z,3.88
2022-11-26T23:06:34.459Z,4.01
2022-11-26T23:09:03.552Z,4.11
2022-11-26T23:11:41.581Z,4.03
2022-11-26T23:14:10.116Z,4.06
2022-11-26T23:16:38.774Z,4.17
2022-11-26T23:19:06.519Z,4.27
2022-11-26T23:21:40.157Z,4.28
2022-11-26T23:24:07.675Z,4.24
2022-11-26T23:26:36.952Z,4.31
2022-11-26T23:29:05.276Z,4.24
2022-11-26T23:31:35.037Z,4.34
2022-11-26T23:34:02.097Z,4.39
2022-11-26T23:36:29.607Z,4.40
2022-11-26T23:38:56.923Z,4.40
2022-11-26T23:41:23.729Z,4.37
2022-11-26T23:43:50.641Z,4.37
2022-11-26T23:46:29.551Z,4.47
2022-11-26T23:48:56.686Z,4.47
2022-11-26T23:51:26.030Z,4.45
2022-11-26T23:53:53.497Z,4.45
2022-11-26T23:56:26.636Z,4.48
2022-11-26T23:58:56.256Z,4.49
